Time;durP1;ratioP1;P1;durP2;ratioP2;P2;SDS_P1;SDS_P2;PMS_P1;PMS_P2;Temp;Humidity;BMP_temperature;BMP_pressure;BME280_temperature;BME280_humidity;BME280_pressure;Samples;Min_cycle;Max_cycle;Signal;HPM_P1;HPM_P2
2024/03/13 00:01:45;;;;;;;0.10;0.08;;;5.00;93.70;;;;;;21054925;28;20032;-44
2024/03/13 00:11:49;;;;;;;0.00;0.00;;;5.10;93.50;;;;;;21026844;28;20528;-47
2024/03/13 00:21:52;;;;;;;0.10;0.00;;;5.10;93.10;;;;;;21083400;28;20039;-44
2024/03/13 00:31:54;;;;;;;0.20;0.00;;;5.10;93.10;;;;;;21071318;28;20032;-44
2024/03/13 00:41:56;;;;;;;2.33;0.03;;;5.00;93.30;;;;;;21062402;28;20032;-44
2024/03/13 00:51:59;;;;;;;0.00;0.00;;;4.90;93.10;;;;;;21057146;28;20049;-46
2024/03/13 01:02:01;;;;;;;0.43;0.10;;;5.00;93.10;;;;;;20994223;28;20490;-43
2024/03/13 01:12:05;;;;;;;0.00;0.00;;;4.90;93.30;;;;;;20941933;28;20063;-43
2024/03/13 01:22:12;;;;;;;0.20;0.00;;;5.00;93.10;;;;;;20985151;28;20045;-44
2024/03/13 01:32:15;;;;;;;0.00;0.00;;;5.00;93.20;;;;;;20964355;28;20037;-43
2024/03/13 02:03:01;;;;;;;0.17;0.00;;;4.40;94.00;;;;;;21075406;28;20028;-41
2024/03/13 02:13:15;;;;;;;0.22;0.00;;;4.40;94.50;;;;;;21070619;28;20032;-45
2024/03/13 02:23:24;;;;;;;0.10;0.00;;;4.40;94.30;;;;;;20988981;28;20036;-43
2024/03/13 02:33:26;;;;;;;0.00;0.00;;;4.50;94.20;;;;;;20988802;28;20032;-44
2024/03/13 02:43:28;;;;;;;0.00;0.00;;;4.50;93.70;;;;;;20987990;28;20036;-41
2024/03/13 02:53:30;;;;;;;0.10;0.00;;;4.50;93.90;;;;;;21021517;28;20125;-48
2024/03/13 03:03:31;;;;;;;0.88;0.00;;;4.50;93.50;;;;;;20987121;28;20029;-43
2024/03/13 03:13:33;;;;;;;0.73;0.00;;;4.60;93.90;;;;;;20985540;28;20078;-43
2024/03/13 03:23:35;;;;;;;0.00;0.00;;;4.50;95.20;;;;;;20983659;28;20824;-45
2024/03/13 03:33:37;;;;;;;0.32;0.00;;;4.40;93.20;;;;;;20986782;28;20082;-44
2024/03/13 03:43:39;;;;;;;0.30;0.00;;;4.30;94.70;;;;;;20987107;28;20102;-43
2024/03/13 03:53:44;;;;;;;0.00;0.00;;;4.20;96.20;;;;;;21010638;28;20508;-48
2024/03/13 04:03:47;;;;;;;0.20;0.00;;;3.90;96.10;;;;;;20975641;28;20052;-43
2024/03/13 04:13:49;;;;;;;1.23;0.00;;;3.90;95.90;;;;;;20932253;28;20021;-44
2024/03/13 04:23:53;;;;;;;0.00;0.00;;;3.80;97.50;;;;;;20965184;28;20043;-44
2024/03/13 04:33:55;;;;;;;0.30;0.10;;;3.50;99.30;;;;;;20981844;28;20036;-44
2024/03/13 04:43:56;;;;;;;0.20;0.00;;;2.90;99.90;;;;;;20999117;28;20032;-43
2024/03/13 04:54:02;;;;;;;0.00;0.00;;;2.60;98.90;;;;;;21028261;28;20052;-44
2024/03/13 05:04:03;;;;;;;0.10;0.00;;;2.40;99.90;;;;;;21161029;28;20035;-44
2024/03/13 05:14:06;;;;;;;0.00;0.00;;;2.40;99.90;;;;;;21153619;28;20031;-45
2024/03/13 05:24:07;;;;;;;1.20;0.00;;;2.60;99.90;;;;;;21132215;28;20027;-45
2024/03/13 05:34:12;;;;;;;0.00;0.00;;;2.60;99.90;;;;;;20866542;28;20076;-43
2024/03/13 05:44:17;;;;;;;1.00;0.03;;;2.60;99.90;;;;;;20819754;28;20053;-46
2024/03/13 05:54:19;;;;;;;0.00;0.00;;;2.70;99.90;;;;;;20796195;28;20053;-41
2024/03/13 06:04:22;;;;;;;0.00;0.00;;;2.80;99.90;;;;;;20899042;28;20060;-44
2024/03/13 06:14:24;;;;;;;0.00;0.00;;;3.00;99.90;;;;;;20952377;28;20033;-48
2024/03/13 06:24:32;;;;;;;0.25;0.00;;;3.10;99.90;;;;;;20935325;28;20052;-45
2024/03/13 06:34:38;;;;;;;0.15;0.00;;;3.30;99.90;;;;;;20950901;28;20031;-44
2024/03/13 06:44:40;;;;;;;0.10;0.00;;;3.60;99.90;;;;;;20929414;28;20036;-43
2024/03/13 06:54:44;;;;;;;0.00;0.00;;;3.90;99.90;;;;;;21055132;28;20044;-42
2024/03/13 07:04:46;;;;;;;1.67;0.00;;;4.00;99.90;;;;;;21062590;28;20040;-44
2024/03/13 07:14:49;;;;;;;0.10;0.00;;;4.30;99.90;;;;;;20894498;28;20191;-45
2024/03/13 07:24:51;;;;;;;0.40;0.00;;;4.50;99.40;;;;;;20904612;28;20168;-43
2024/03/13 07:34:53;;;;;;;0.20;0.00;;;4.80;99.90;;;;;;20893076;28;20045;-49
2024/03/13 07:44:55;;;;;;;0.00;0.00;;;5.30;98.70;;;;;;21032510;28;20086;-44
2024/03/13 07:54:57;;;;;;;0.15;0.00;;;5.90;98.20;;;;;;21102335;28;20036;-44
2024/03/13 08:04:59;;;;;;;0.20;0.10;;;6.30;96.70;;;;;;21089166;28;20085;-44
2024/03/13 08:15:02;;;;;;;0.60;0.00;;;6.70;92.70;;;;;;21069322;28;20032;-43
2024/03/13 08:25:07;;;;;;;0.00;0.00;;;6.90;92.10;;;;;;21068884;28;20092;-44
2024/03/13 08:35:09;;;;;;;0.35;0.00;;;7.10;92.00;;;;;;20986030;22;20049;-43
2024/03/13 08:45:13;;;;;;;0.65;0.00;;;7.40;92.20;;;;;;20772925;28;20060;-42
2024/03/13 08:55:17;;;;;;;0.55;0.25;;;7.20;91.90;;;;;;20827395;28;20033;-43
2024/03/13 09:05:19;;;;;;;0.20;0.10;;;7.60;91.20;;;;;;20763444;28;20500;-45
2024/03/13 09:15:20;;;;;;;0.15;0.05;;;8.10;91.00;;;;;;20829881;28;20555;-46
2024/03/13 09:25:22;;;;;;;0.20;0.00;;;9.00;90.60;;;;;;20827858;28;20041;-43
2024/03/13 09:35:24;;;;;;;0.10;0.00;;;9.60;89.00;;;;;;20787551;28;20057;-42
2024/03/13 09:45:26;;;;;;;0.10;0.03;;;9.90;86.20;;;;;;20765237;28;20084;-41
2024/03/13 09:55:30;;;;;;;1.55;0.00;;;10.40;89.60;;;;;;20822391;28;20072;-45
2024/03/13 10:05:31;;;;;;;0.10;0.10;;;11.00;90.70;;;;;;20800645;28;20484;-44
2024/03/13 10:15:36;;;;;;;0.20;0.10;;;11.70;87.40;;;;;;20826769;28;20084;-43
2024/03/13 10:25:40;;;;;;;0.40;0.13;;;11.50;89.20;;;;;;20803788;28;20029;-47
2024/03/13 10:35:42;;;;;;;0.10;0.10;;;11.60;90.10;;;;;;20828990;28;20056;-41
2024/03/13 10:45:50;;;;;;;0.30;0.10;;;11.00;90.10;;;;;;20771134;28;20034;-45
2024/03/13 10:55:52;;;;;;;0.22;0.10;;;11.70;85.20;;;;;;20794839;28;20485;-44
2024/03/13 11:05:54;;;;;;;0.47;0.15;;;12.60;88.30;;;;;;20755562;28;20076;-42
2024/03/13 11:16:01;;;;;;;1.38;0.10;;;13.00;87.40;;;;;;20817896;28;20033;-46
2024/03/13 11:26:09;;;;;;;2.08;0.20;;;13.10;84.40;;;;;;20779404;28;20042;-47
2024/03/13 11:36:11;;;;;;;0.40;0.20;;;13.00;85.20;;;;;;20748530;28;20049;-44
2024/03/13 11:46:14;;;;;;;0.75;0.20;;;12.70;85.60;;;;;;20811467;28;20026;-43
2024/03/13 11:56:24;;;;;;;0.90;0.20;;;12.90;85.80;;;;;;20793722;28;20030;-44
2024/03/13 12:06:26;;;;;;;0.50;0.30;;;13.60;86.50;;;;;;20766195;28;20036;-44
2024/03/13 12:16:28;;;;;;;1.23;0.60;;;13.90;86.40;;;;;;20834827;28;20060;-45
2024/03/13 12:26:30;;;;;;;0.70;0.30;;;14.30;85.60;;;;;;20827185;28;20033;-43
2024/03/13 12:36:51;;;;;;;0.65;0.30;;;14.20;82.60;;;;;;20767779;28;20058;-42
2024/03/13 12:46:53;;;;;;;2.90;1.20;;;13.20;88.10;;;;;;20766003;28;20083;-43
2024/03/13 12:56:55;;;;;;;6.10;1.77;;;12.90;90.80;;;;;;20830748;28;20025;-43
2024/03/13 13:06:57;;;;;;;7.70;3.72;;;13.20;88.50;;;;;;20813032;28;20099;-41
2024/03/13 13:16:59;;;;;;;6.65;4.43;;;12.70;92.30;;;;;;20830497;28;20115;-44
2024/03/13 13:27:01;;;;;;;8.20;5.78;;;13.50;92.80;;;;;;20830404;28;20492;-47
2024/03/13 13:37:03;;;;;;;8.80;5.45;;;13.70;92.00;;;;;;20748646;28;20050;-46
2024/03/13 13:47:04;;;;;;;8.85;5.95;;;13.50;92.00;;;;;;20686840;28;20040;-43
2024/03/13 13:57:12;;;;;;;10.63;6.32;;;13.00;93.90;;;;;;20727099;28;20155;-43
2024/03/13 14:07:15;;;;;;;9.75;6.82;;;12.70;94.10;;;;;;20720799;28;20034;-43
2024/03/13 14:17:17;;;;;;;9.15;5.85;;;12.50;94.00;;;;;;20745098;28;20481;-43
2024/03/13 14:27:19;;;;;;;9.68;6.53;;;11.70;94.10;;;;;;20727033;28;20076;-42
2024/03/13 14:37:20;;;;;;;9.93;6.00;;;11.50;95.90;;;;;;20849537;28;20561;-43
2024/03/13 14:47:22;;;;;;;8.05;5.28;;;11.40;95.40;;;;;;20846923;28;20400;-44
2024/03/13 14:57:27;;;;;;;8.45;5.40;;;10.90;95.10;;;;;;20804811;28;20036;-44
2024/03/13 15:07:29;;;;;;;9.05;6.05;;;10.50;95.20;;;;;;20894639;28;20380;-41
2024/03/13 15:17:35;;;;;;;10.77;6.57;;;10.20;95.80;;;;;;20904460;28;20048;-43
2024/03/13 15:27:38;;;;;;;12.25;6.88;;;9.90;97.00;;;;;;20898996;28;20044;-41
2024/03/13 15:37:40;;;;;;;10.88;6.47;;;9.60;97.70;;;;;;20900339;28;20045;-42
2024/03/13 15:47:42;;;;;;;11.18;6.97;;;9.30;98.30;;;;;;20885545;28;20033;-41
2024/03/13 15:57:44;;;;;;;7.22;4.40;;;8.90;99.00;;;;;;20821367;28;20033;-45
2024/03/13 16:07:57;;;;;;;4.82;3.08;;;8.00;99.00;;;;;;20851793;28;20029;-41
2024/03/13 16:18:01;;;;;;;8.15;4.20;;;7.20;99.40;;;;;;20916156;28;20033;-41
2024/03/13 16:28:12;;;;;;;10.43;5.13;;;6.80;99.90;;;;;;20912193;28;20554;-41
2024/03/13 16:38:14;;;;;;;5.15;2.20;;;6.40;99.90;;;;;;20912783;28;20044;-40
2024/03/13 16:48:16;;;;;;;7.53;3.30;;;5.90;99.90;;;;;;20865842;28;20033;-42
2024/03/13 16:58:17;;;;;;;2.88;1.60;;;5.70;99.90;;;;;;20859577;28;20033;-40
2024/03/13 17:08:20;;;;;;;8.02;3.13;;;5.30;99.90;;;;;;20881244;28;20037;-40
2024/03/13 17:18:22;;;;;;;8.73;4.07;;;5.00;99.90;;;;;;20914318;28;20040;-40
2024/03/13 17:28:23;;;;;;;2.75;1.58;;;4.50;99.90;;;;;;20887154;28;20030;-40
2024/03/13 17:38:28;;;;;;;3.95;2.08;;;4.10;99.90;;;;;;20861888;28;20049;-40
2024/03/13 17:48:30;;;;;;;3.20;1.63;;;3.90;99.90;;;;;;20903864;28;20036;-40
2024/03/13 17:58:32;;;;;;;7.82;3.40;;;3.70;99.90;;;;;;20904005;28;20496;-40
2024/03/13 18:08:33;;;;;;;13.05;6.25;;;3.50;99.90;;;;;;20895315;28;20036;-40
2024/03/13 18:18:35;;;;;;;15.32;7.45;;;3.50;99.90;;;;;;20909390;28;20029;-41
2024/03/13 18:28:38;;;;;;;9.75;5.70;;;3.30;99.90;;;;;;20908399;28;20049;-40
2024/03/13 18:38:40;;;;;;;10.73;5.75;;;3.20;99.90;;;;;;20903744;28;20094;-40
2024/03/13 18:48:42;;;;;;;6.57;2.80;;;3.40;99.90;;;;;;20855256;28;20037;-40
2024/03/13 18:58:45;;;;;;;4.22;2.35;;;3.40;99.90;;;;;;20883220;28;20029;-40
2024/03/13 19:08:47;;;;;;;3.08;1.67;;;3.60;99.90;;;;;;20842719;28;20033;-40
2024/03/13 19:18:52;;;;;;;1.13;0.63;;;3.50;99.90;;;;;;20888589;28;20463;-40
2024/03/13 19:28:55;;;;;;;2.38;0.85;;;3.50;99.90;;;;;;20895712;28;20094;-41
2024/03/13 19:38:57;;;;;;;1.48;0.73;;;3.40;99.90;;;;;;20889103;28;20049;-40
2024/03/13 19:48:58;;;;;;;1.48;0.60;;;3.50;99.90;;;;;;20891244;28;20032;-42
2024/03/13 19:59:00;;;;;;;1.42;0.75;;;3.50;99.90;;;;;;20874937;28;20052;-41
2024/03/13 20:09:03;;;;;;;1.75;0.50;;;3.60;99.90;;;;;;20882469;28;20086;-42
2024/03/13 20:19:05;;;;;;;1.88;0.73;;;3.70;99.90;;;;;;20902966;28;20388;-42
2024/03/13 20:29:13;;;;;;;2.47;0.80;;;3.60;99.90;;;;;;20904780;28;20056;-42
2024/03/13 20:39:15;;;;;;;1.35;0.68;;;3.40;99.90;;;;;;20843034;28;20045;-40
2024/03/13 20:49:18;;;;;;;1.40;0.68;;;3.40;99.90;;;;;;20862160;28;20437;-41
2024/03/13 20:59:20;;;;;;;1.45;0.82;;;3.30;99.90;;;;;;20902318;28;20086;-42
2024/03/13 21:09:24;;;;;;;2.38;1.02;;;3.20;99.90;;;;;;20909678;28;20040;-40
2024/03/13 21:19:27;;;;;;;3.50;1.33;;;3.40;99.90;;;;;;20846967;28;20041;-43
2024/03/13 21:29:31;;;;;;;4.57;1.85;;;3.20;99.90;;;;;;20910993;28;20041;-40
2024/03/13 21:39:33;;;;;;;3.55;1.83;;;2.90;99.90;;;;;;20911572;28;20029;-41
2024/03/13 21:49:34;;;;;;;5.18;2.40;;;3.00;99.90;;;;;;20911832;28;20029;-41
2024/03/13 21:59:36;;;;;;;3.15;1.50;;;2.90;99.90;;;;;;20879835;28;20041;-40
2024/03/13 22:09:38;;;;;;;5.70;1.90;;;2.50;99.90;;;;;;20893898;28;20029;-41
2024/03/13 22:19:42;;;;;;;2.83;1.40;;;2.50;99.90;;;;;;20870535;28;20438;-40
2024/03/13 22:29:44;;;;;;;6.15;2.67;;;2.40;99.90;;;;;;20890629;28;20547;-41
2024/03/13 22:39:45;;;;;;;4.70;2.40;;;2.30;99.90;;;;;;20907434;28;20044;-43
2024/03/13 22:49:49;;;;;;;3.50;2.00;;;2.20;99.90;;;;;;20901219;28;20029;-40
2024/03/13 22:59:51;;;;;;;2.58;1.35;;;2.40;99.90;;;;;;20871983;28;20025;-41
2024/03/13 23:09:53;;;;;;;3.50;0.80;;;2.30;99.90;;;;;;20828126;28;20095;-43
2024/03/13 23:19:55;;;;;;;3.58;1.17;;;2.40;99.90;;;;;;20874886;28;20026;-42
2024/03/13 23:30:00;;;;;;;1.95;0.65;;;2.40;99.90;;;;;;20882934;28;20095;-40
2024/03/13 23:40:06;;;;;;;3.85;0.90;;;2.40;99.90;;;;;;20898968;28;20048;-42
2024/03/13 23:50:11;;;;;;;3.20;0.85;;;2.40;99.90;;;;;;20871915;28;20075;-42
